Time;durP1;ratioP1;P1;durP2;ratioP2;P2;SDS_P1;SDS_P2;PMS_P1;PMS_P2;Temp;Humidity;BMP_temperature;BMP_pressure;BME280_temperature;BME280_humidity;BME280_pressure;Samples;Min_cycle;Max_cycle;Signal;HPM_P1;HPM_P2
2023/04/03 00:00:32;;;;;;;13.18;3.97;;;;;;;;;;4984495;28;20721;-59
2023/04/03 00:03:06;;;;;;;7.82;3.00;;;;;;;;;;4984462;28;20065;-59
2023/04/03 00:05:33;;;;;;;7.18;2.88;;;;;;;;;;4984372;28;20050;-59
2023/04/03 00:08:01;;;;;;;8.88;2.67;;;;;;;;;;4983091;28;20064;-60
2023/04/03 00:10:36;;;;;;;9.98;3.15;;;;;;;;;;4984958;28;20140;-63
2023/04/03 00:13:04;;;;;;;5.90;2.85;;;;;;;;;;4985720;28;20081;-62
2023/04/03 00:15:31;;;;;;;6.68;2.60;;;;;;;;;;4986546;28;20073;-63
2023/04/03 00:18:05;;;;;;;6.03;2.58;;;;;;;;;;4985284;28;20506;-62
2023/04/03 00:20:33;;;;;;;8.65;2.72;;;;;;;;;;4982575;28;21306;-63
2023/04/03 00:23:01;;;;;;;4.65;2.53;;;;;;;;;;4983652;28;20057;-63
2023/04/03 00:25:42;;;;;;;4.03;2.30;;;;;;;;;;4986137;28;20057;-54
2023/04/03 00:28:09;;;;;;;9.35;2.63;;;;;;;;;;4982608;28;20090;-52
2023/04/03 00:30:43;;;;;;;11.73;2.83;;;;;;;;;;4982861;28;20058;-48
2023/04/03 00:33:12;;;;;;;6.22;2.90;;;;;;;;;;4984758;28;20054;-48
2023/04/03 00:35:53;;;;;;;7.30;2.75;;;;;;;;;;4983272;28;20060;-54
2023/04/03 00:38:20;;;;;;;5.53;2.63;;;;;;;;;;4986154;28;20426;-51
2023/04/03 00:40:54;;;;;;;9.17;2.33;;;;;;;;;;4984953;28;20089;-56
2023/04/03 00:43:23;;;;;;;7.50;2.33;;;;;;;;;;4984845;28;20153;-54
2023/04/03 00:45:57;;;;;;;7.95;2.97;;;;;;;;;;4984305;28;20149;-55
2023/04/03 00:48:35;;;;;;;6.35;2.72;;;;;;;;;;4979514;28;20105;-49
2023/04/03 00:51:03;;;;;;;7.15;2.60;;;;;;;;;;4975136;28;20142;-50
2023/04/03 00:53:52;;;;;;;8.40;2.40;;;;;;;;;;4982902;28;20054;-61
2023/04/03 00:56:22;;;;;;;7.47;2.67;;;;;;;;;;4985677;28;20061;-61
2023/04/03 00:59:02;;;;;;;9.43;4.03;;;;;;;;;;4987773;28;20061;-61
2023/04/03 01:01:37;;;;;;;8.50;3.23;;;;;;;;;;4981332;28;20698;-61
2023/04/03 01:04:06;;;;;;;5.43;2.70;;;;;;;;;;4988526;28;20060;-51
2023/04/03 01:06:35;;;;;;;8.40;3.00;;;;;;;;;;4987484;28;20058;-60
2023/04/03 01:09:09;;;;;;;6.33;3.00;;;;;;;;;;4983631;28;20137;-61
2023/04/03 01:11:36;;;;;;;7.68;2.60;;;;;;;;;;4986642;28;20193;-61
2023/04/03 01:14:10;;;;;;;10.07;3.13;;;;;;;;;;4988139;28;20050;-61
2023/04/03 01:16:37;;;;;;;11.75;2.47;;;;;;;;;;4986388;28;20062;-61
2023/04/03 01:19:14;;;;;;;8.35;2.75;;;;;;;;;;4981248;28;20042;-61
2023/04/03 01:22:00;;;;;;;10.37;3.10;;;;;;;;;;4984112;28;20091;-58
2023/04/03 01:24:41;;;;;;;7.10;2.80;;;;;;;;;;4982765;28;20048;-46
2023/04/03 01:27:10;;;;;;;10.33;2.60;;;;;;;;;;4983196;28;20057;-51
2023/04/03 01:29:44;;;;;;;9.57;2.97;;;;;;;;;;4983437;28;20054;-52
2023/04/03 01:32:11;;;;;;;;;;;;;;;;;;4988673;28;20129;-52
2023/04/03 01:34:39;;;;;;;11.37;3.13;;;;;;;;;;4984713;28;19994;-52
2023/04/03 01:37:13;;;;;;;8.93;3.13;;;;;;;;;;4989199;28;20045;-52
2023/04/03 01:39:40;;;;;;;8.45;2.63;;;;;;;;;;4980489;28;20054;-53
2023/04/03 01:42:15;;;;;;;7.23;3.07;;;;;;;;;;4984926;28;20074;-50
2023/04/03 01:44:42;;;;;;;7.78;2.78;;;;;;;;;;4986358;28;20054;-54
2023/04/03 01:47:09;;;;;;;9.27;3.03;;;;;;;;;;4983834;28;20149;-51
2023/04/03 01:49:43;;;;;;;9.57;3.20;;;;;;;;;;4986408;28;20149;-54
2023/04/03 01:52:10;;;;;;;7.07;2.88;;;;;;;;;;4983665;28;20061;-61
2023/04/03 01:54:38;;;;;;;;;;;;;;;;;;4968212;28;20082;-49
2023/04/03 01:57:13;;;;;;;9.93;3.07;;;;;;;;;;4986927;28;20448;-48
2023/04/03 01:59:40;;;;;;;12.73;3.25;;;;;;;;;;4992166;28;20065;-52
2023/04/03 02:02:14;;;;;;;8.87;2.83;;;;;;;;;;4988355;28;20136;-50
2023/04/03 02:04:41;;;;;;;7.83;3.20;;;;;;;;;;4986594;28;20092;-53
2023/04/03 02:07:09;;;;;;;8.55;2.65;;;;;;;;;;4988521;28;20514;-54
2023/04/03 02:09:43;;;;;;;7.40;2.80;;;;;;;;;;4987470;28;20068;-55
2023/04/03 02:12:10;;;;;;;8.45;3.03;;;;;;;;;;4989303;28;20053;-49
2023/04/03 02:14:37;;;;;;;6.80;2.85;;;;;;;;;;4989456;28;20054;-52
2023/04/03 02:17:11;;;;;;;10.13;3.00;;;;;;;;;;4991014;28;20498;-50
2023/04/03 02:19:38;;;;;;;7.65;3.28;;;;;;;;;;4992125;28;20045;-63
2023/04/03 02:22:12;;;;;;;10.50;3.10;;;;;;;;;;4984495;28;20133;-49
2023/04/03 02:24:46;;;;;;;9.23;2.67;;;;;;;;;;4986174;28;20065;-54
2023/04/03 02:27:20;;;;;;;10.13;2.77;;;;;;;;;;4987377;28;20120;-53
2023/04/03 02:29:47;;;;;;;13.27;3.10;;;;;;;;;;4987130;28;20602;-56
2023/04/03 02:32:15;;;;;;;6.20;2.95;;;;;;;;;;4989625;28;20112;-53
2023/04/03 02:34:49;;;;;;;7.63;3.25;;;;;;;;;;4987051;28;20058;-50
2023/04/03 02:37:16;;;;;;;;;;;;;;;;;;4989188;28;20161;-51
2023/04/03 02:39:50;;;;;;;9.97;3.23;;;;;;;;;;4989883;28;19921;-54
2023/04/03 02:42:17;;;;;;;7.17;3.00;;;;;;;;;;4987090;28;20089;-55
2023/04/03 02:44:45;;;;;;;9.52;3.03;;;;;;;;;;4987667;28;20058;-56
2023/04/03 02:47:18;;;;;;;11.43;3.50;;;;;;;;;;4988031;28;20050;-47
2023/04/03 02:49:45;;;;;;;7.72;3.33;;;;;;;;;;4982306;28;20061;-49
2023/04/03 02:52:13;;;;;;;12.63;3.37;;;;;;;;;;4988596;28;20093;-60
2023/04/03 02:54:47;;;;;;;10.23;3.53;;;;;;;;;;4988647;28;20421;-60
2023/04/03 02:57:14;;;;;;;7.57;2.83;;;;;;;;;;4982894;28;20046;-60
2023/04/03 02:59:48;;;;;;;9.57;3.37;;;;;;;;;;4989547;28;20157;-59
2023/04/03 03:02:15;;;;;;;13.45;3.30;;;;;;;;;;4991237;28;20074;-59
2023/04/03 03:04:43;;;;;;;11.63;3.80;;;;;;;;;;4991676;28;20064;-58
2023/04/03 03:07:17;;;;;;;7.40;3.37;;;;;;;;;;4986305;28;20054;-56
2023/04/03 03:09:44;;;;;;;7.13;3.63;;;;;;;;;;4986071;28;20058;-56
2023/04/03 03:12:21;;;;;;;14.47;3.77;;;;;;;;;;4983832;28;20060;-54
2023/04/03 03:14:48;;;;;;;7.47;3.00;;;;;;;;;;4988053;28;20616;-52
2023/04/03 03:17:16;;;;;;;7.47;3.78;;;;;;;;;;4992755;28;20105;-52
2023/04/03 03:19:49;;;;;;;7.77;3.40;;;;;;;;;;4984783;28;20096;-53
2023/04/03 03:22:17;;;;;;;6.75;3.03;;;;;;;;;;4986348;28;20053;-56
2023/04/03 03:24:58;;;;;;;7.47;3.20;;;;;;;;;;4986383;28;20581;-51
2023/04/03 03:27:25;;;;;;;7.93;3.43;;;;;;;;;;4982068;28;20522;-48
2023/04/03 03:29:59;;;;;;;6.23;3.33;;;;;;;;;;4968527;28;20054;-55
2023/04/03 03:32:26;;;;;;;7.38;3.33;;;;;;;;;;4988100;28;20074;-51
2023/04/03 03:34:53;;;;;;;6.15;3.30;;;;;;;;;;4985340;28;20082;-50
2023/04/03 03:37:27;;;;;;;8.40;3.43;;;;;;;;;;4971002;28;21012;-53
2023/04/03 03:39:54;;;;;;;;;;;;;;;;;;4989855;28;20061;-54
2023/04/03 03:42:22;;;;;;;10.50;3.40;;;;;;;;;;4985903;28;20008;-55
2023/04/03 03:44:56;;;;;;;8.30;3.30;;;;;;;;;;4985906;28;20149;-49
2023/04/03 03:47:23;;;;;;;;;;;;;;;;;;4991285;28;20050;-49
2023/04/03 03:49:57;;;;;;;5.97;2.53;;;;;;;;;;4983071;28;20021;-49
2023/04/03 03:52:24;;;;;;;;;;;;;;;;;;4982396;28;20068;-54
2023/04/03 03:54:51;;;;;;;7.97;2.80;;;;;;;;;;4988142;28;20020;-53
2023/04/03 03:57:26;;;;;;;6.00;3.00;;;;;;;;;;4984309;28;20059;-55
2023/04/03 03:59:53;;;;;;;6.60;2.63;;;;;;;;;;4988397;28;20061;-54
2023/04/03 04:02:27;;;;;;;6.10;2.90;;;;;;;;;;4985094;28;20054;-63
2023/04/03 04:04:54;;;;;;;6.67;3.10;;;;;;;;;;4985970;28;20069;-63
2023/04/03 04:07:21;;;;;;;8.48;3.38;;;;;;;;;;4982155;28;20054;-63
2023/04/03 04:09:55;;;;;;;8.63;2.90;;;;;;;;;;4984969;28;20056;-63
2023/04/03 04:12:22;;;;;;;;;;;;;;;;;;4981645;28;20068;-63
2023/04/03 04:14:56;;;;;;;11.80;2.87;;;;;;;;;;4981226;28;19922;-53
2023/04/03 04:17:23;;;;;;;;;;;;;;;;;;4987588;28;20082;-62
2023/04/03 04:19:50;;;;;;;11.63;2.83;;;;;;;;;;4984196;28;19929;-63
2023/04/03 04:22:39;;;;;;;7.37;2.47;;;;;;;;;;4984097;28;20156;-63
2023/04/03 04:25:20;;;;;;;14.63;3.53;;;;;;;;;;4977417;28;20131;-62
2023/04/03 04:27:53;;;;;;;9.90;2.90;;;;;;;;;;4988018;28;20141;-63
2023/04/03 04:30:20;;;;;;;8.35;3.30;;;;;;;;;;4984501;28;20054;-63
2023/04/03 04:32:47;;;;;;;6.88;2.90;;;;;;;;;;4991743;28;20457;-61
2023/04/03 04:35:21;;;;;;;5.73;3.00;;;;;;;;;;4984714;28;20051;-61
2023/04/03 04:37:48;;;;;;;;;;;;;;;;;;4982215;28;20090;-60
2023/04/03 04:40:22;;;;;;;7.67;2.77;;;;;;;;;;4982548;28;19943;-62
2023/04/03 04:42:49;;;;;;;6.10;2.73;;;;;;;;;;4981078;28;20137;-63
2023/04/03 04:45:17;;;;;;;5.75;2.80;;;;;;;;;;4971874;28;20149;-48
2023/04/03 04:47:52;;;;;;;6.80;2.73;;;;;;;;;;4979368;28;20935;-47
2023/04/03 04:50:19;;;;;;;10.90;2.90;;;;;;;;;;4976644;28;20097;-49
2023/04/03 04:52:53;;;;;;;11.27;3.13;;;;;;;;;;4974738;28;20140;-47
2023/04/03 04:55:20;;;;;;;;;;;;;;;;;;4977559;28;20056;-48
2023/04/03 04:57:47;;;;;;;7.37;2.30;;;;;;;;;;4969007;28;19926;-47
2023/04/03 05:00:21;;;;;;;8.77;2.83;;;;;;;;;;4975500;28;20145;-61
2023/04/03 05:02:48;;;;;;;;;;;;;;;;;;4972483;28;20053;-61
2023/04/03 05:05:23;;;;;;;7.83;2.60;;;;;;;;;;4980818;28;19984;-61
2023/04/03 05:07:50;;;;;;;12.43;2.70;;;;;;;;;;4982252;28;20057;-61
2023/04/03 05:10:17;;;;;;;7.10;3.00;;;;;;;;;;4985813;28;20150;-54
2023/04/03 05:12:51;;;;;;;10.47;3.17;;;;;;;;;;4987873;28;20050;-59
2023/04/03 05:15:18;;;;;;;;;;;;;;;;;;4987478;28;20054;-57
2023/04/03 05:17:52;;;;;;;10.17;2.40;;;;;;;;;;4993703;28;19932;-58
2023/04/03 05:20:20;;;;;;;;;;;;;;;;;;4991720;28;20138;-58
2023/04/03 05:22:47;;;;;;;8.80;2.70;;;;;;;;;;4980492;28;19965;-59
2023/04/03 05:25:28;;;;;;;9.47;2.57;;;;;;;;;;4985475;28;20061;-59
2023/04/03 05:27:55;;;;;;;8.90;3.60;;;;;;;;;;4970782;28;20082;-51
2023/04/03 05:30:29;;;;;;;11.37;5.50;;;;;;;;;;4988592;28;20149;-61
2023/04/03 05:32:56;;;;;;;11.57;4.77;;;;;;;;;;4989417;28;20097;-61
2023/04/03 05:35:24;;;;;;;11.98;4.65;;;;;;;;;;4985923;28;20058;-60
2023/04/03 05:37:58;;;;;;;10.27;4.20;;;;;;;;;;4987127;28;20080;-61
2023/04/03 05:40:26;;;;;;;;;;;;;;;;;;4989794;28;20054;-61
2023/04/03 05:42:59;;;;;;;12.80;4.00;;;;;;;;;;4989183;28;19925;-62
2023/04/03 05:45:26;;;;;;;;;;;;;;;;;;4990071;28;20054;-62
2023/04/03 05:47:53;;;;;;;7.57;3.10;;;;;;;;;;4990067;28;19933;-61
2023/04/03 05:50:34;;;;;;;12.50;3.57;;;;;;;;;;4986062;28;20074;-49
2023/04/03 05:53:02;;;;;;;8.90;3.42;;;;;;;;;;4982840;28;20133;-51
2023/04/03 05:55:36;;;;;;;5.80;3.22;;;;;;;;;;4986971;28;20759;-49
2023/04/03 05:58:04;;;;;;;8.77;3.33;;;;;;;;;;4986301;28;20056;-48
2023/04/03 06:00:31;;;;;;;11.35;3.83;;;;;;;;;;4986127;28;20400;-53
2023/04/03 06:03:06;;;;;;;12.05;3.53;;;;;;;;;;4986216;28;20050;-53
2023/04/03 06:05:33;;;;;;;16.67;3.95;;;;;;;;;;4987413;28;20057;-47
2023/04/03 06:08:00;;;;;;;7.05;3.38;;;;;;;;;;4986896;28;20058;-48
2023/04/03 06:10:34;;;;;;;9.73;3.35;;;;;;;;;;4986621;28;20441;-45
2023/04/03 06:13:01;;;;;;;13.57;3.53;;;;;;;;;;4984562;28;20074;-47
2023/04/03 06:15:35;;;;;;;9.30;3.90;;;;;;;;;;4988570;28;20145;-51
2023/04/03 06:18:02;;;;;;;12.88;3.67;;;;;;;;;;4989410;28;20052;-52
2023/04/03 06:20:30;;;;;;;10.00;3.47;;;;;;;;;;4990215;28;20746;-46
2023/04/03 06:23:11;;;;;;;10.30;3.05;;;;;;;;;;4984566;28;20050;-51
2023/04/03 06:25:45;;;;;;;11.18;3.35;;;;;;;;;;4986819;28;20512;-48
2023/04/03 06:28:19;;;;;;;8.27;3.72;;;;;;;;;;4985465;28;20064;-45
2023/04/03 06:30:46;;;;;;;11.05;3.35;;;;;;;;;;4987128;28;20055;-45
2023/04/03 06:33:14;;;;;;;11.90;2.95;;;;;;;;;;4990385;28;20078;-53
2023/04/03 06:35:48;;;;;;;9.88;3.20;;;;;;;;;;4987923;28;20049;-53
2023/04/03 06:38:15;;;;;;;7.93;2.35;;;;;;;;;;4983977;28;20050;-52
2023/04/03 06:40:49;;;;;;;10.02;3.13;;;;;;;;;;4984716;28;20057;-50
2023/04/03 06:43:16;;;;;;;7.75;3.13;;;;;;;;;;4988897;28;20058;-49
2023/04/03 06:45:43;;;;;;;6.47;2.40;;;;;;;;;;4991262;28;20181;-53
2023/04/03 06:48:17;;;;;;;5.82;2.25;;;;;;;;;;4992936;28;20046;-55
2023/04/03 06:50:44;;;;;;;5.25;2.20;;;;;;;;;;4991432;28;20589;-50
2023/04/03 06:53:12;;;;;;;6.65;2.40;;;;;;;;;;4989380;28;20133;-53
2023/04/03 06:55:47;;;;;;;5.90;1.80;;;;;;;;;;4987201;28;20524;-54
2023/04/03 06:58:15;;;;;;;10.75;2.15;;;;;;;;;;4987306;28;20133;-56
2023/04/03 07:00:49;;;;;;;4.10;2.00;;;;;;;;;;4990576;28;20512;-55
2023/04/03 07:03:16;;;;;;;3.45;1.52;;;;;;;;;;4991030;28;20058;-57
2023/04/03 07:05:44;;;;;;;8.20;2.78;;;;;;;;;;4990111;28;20062;-55
2023/04/03 07:08:18;;;;;;;3.97;1.90;;;;;;;;;;4990765;28;20050;-56
2023/04/03 07:10:45;;;;;;;2.30;1.30;;;;;;;;;;4984172;28;20125;-53
2023/04/03 07:13:19;;;;;;;7.82;1.50;;;;;;;;;;4990755;28;20090;-46
2023/04/03 07:15:47;;;;;;;2.85;1.25;;;;;;;;;;4990453;28;20062;-62
2023/04/03 07:18:14;;;;;;;5.88;1.80;;;;;;;;;;4994775;28;20108;-63
2023/04/03 07:20:48;;;;;;;2.78;1.35;;;;;;;;;;4986952;28;20460;-63
2023/04/03 07:23:15;;;;;;;6.22;1.42;;;;;;;;;;4992456;28;20590;-63
2023/04/03 07:25:57;;;;;;;2.83;1.30;;;;;;;;;;4990649;28;20145;-63
2023/04/03 07:28:24;;;;;;;3.42;1.45;;;;;;;;;;4990317;28;20137;-62
2023/04/03 07:31:03;;;;;;;4.22;1.45;;;;;;;;;;4989108;28;20054;-54
2023/04/03 07:33:30;;;;;;;2.90;1.35;;;;;;;;;;4990031;28;20053;-54
2023/04/03 07:35:58;;;;;;;3.50;1.50;;;;;;;;;;4989745;28;20050;-54
2023/04/03 07:38:32;;;;;;;3.65;1.20;;;;;;;;;;4991761;28;20761;-54
2023/04/03 07:41:00;;;;;;;3.17;1.60;;;;;;;;;;4986049;28;20413;-55
2023/04/03 07:43:34;;;;;;;4.70;1.30;;;;;;;;;;4992539;28;20134;-54
2023/04/03 07:46:02;;;;;;;16.65;2.10;;;;;;;;;;4974566;28;20517;-54
2023/04/03 07:48:29;;;;;;;7.75;1.73;;;;;;;;;;4988254;28;20058;-56
2023/04/03 07:51:04;;;;;;;5.72;1.20;;;;;;;;;;4987589;28;20049;-56
2023/04/03 07:53:31;;;;;;;10.93;1.55;;;;;;;;;;4987615;28;20050;-57
2023/04/03 07:56:05;;;;;;;4.78;1.42;;;;;;;;;;4986028;28;20137;-53
2023/04/03 07:58:32;;;;;;;3.40;1.33;;;;;;;;;;4986621;28;20421;-63
2023/04/03 08:01:00;;;;;;;;;;;;;;;;;;4983325;28;20109;-63
2023/04/03 08:03:34;;;;;;;3.55;1.30;;;;;;;;;;4987068;28;19922;-63
2023/04/03 08:06:03;;;;;;;3.78;1.15;;;;;;;;;;4985460;28;20050;-63
2023/04/03 08:08:42;;;;;;;3.63;1.10;;;;;;;;;;4991372;28;20054;-51
2023/04/03 08:11:10;;;;;;;2.13;1.30;;;;;;;;;;4989993;28;20677;-54
2023/04/03 08:13:44;;;;;;;4.57;1.10;;;;;;;;;;4986473;28;20507;-63
2023/04/03 08:16:18;;;;;;;4.75;1.63;;;;;;;;;;4986754;28;20145;-63
2023/04/03 08:18:54;;;;;;;3.70;1.40;;;;;;;;;;4981097;28;20774;-63
2023/04/03 08:21:29;;;;;;;2.87;1.30;;;;;;;;;;4987730;28;20041;-63
2023/04/03 08:24:10;;;;;;;4.75;1.45;;;;;;;;;;4984462;28;20815;-62
2023/04/03 08:26:38;;;;;;;3.17;1.23;;;;;;;;;;4986053;28;20066;-63
2023/04/03 08:29:13;;;;;;;2.67;1.25;;;;;;;;;;4987640;28;20062;-54
2023/04/03 08:31:46;;;;;;;3.65;1.35;;;;;;;;;;4988700;28;20150;-56
2023/04/03 08:34:14;;;;;;;5.18;1.55;;;;;;;;;;4988167;28;20370;-57
2023/04/03 08:36:48;;;;;;;3.95;1.15;;;;;;;;;;4991202;28;20145;-55
2023/04/03 08:39:15;;;;;;;8.10;1.63;;;;;;;;;;4985273;28;20153;-50
2023/04/03 08:41:46;;;;;;;2.42;1.13;;;;;;;;;;4989171;28;20597;-54
2023/04/03 08:44:35;;;;;;;3.53;1.08;;;;;;;;;;4984353;28;20070;-55
2023/04/03 08:47:09;;;;;;;2.90;1.20;;;;;;;;;;4984333;28;20066;-51
2023/04/03 08:49:47;;;;;;;2.83;1.13;;;;;;;;;;4983855;28;20137;-56
2023/04/03 08:52:17;;;;;;;2.00;1.15;;;;;;;;;;4986963;28;20070;-54
2023/04/03 08:54:51;;;;;;;3.05;1.27;;;;;;;;;;4992183;28;20058;-56
2023/04/03 08:57:21;;;;;;;2.42;1.10;;;;;;;;;;4992323;28;20052;-55
2023/04/03 08:59:56;;;;;;;4.43;1.20;;;;;;;;;;4990275;28;20404;-57
2023/04/03 09:02:24;;;;;;;2.92;1.20;;;;;;;;;;4986473;28;20192;-58
2023/04/03 09:04:58;;;;;;;2.70;1.30;;;;;;;;;;4987224;28;20077;-53
2023/04/03 09:07:37;;;;;;;2.78;1.02;;;;;;;;;;4989444;28;20054;-55
2023/04/03 09:10:14;;;;;;;2.10;1.10;;;;;;;;;;4989040;28;20068;-58
2023/04/03 09:12:53;;;;;;;3.97;1.30;;;;;;;;;;4986979;28;20062;-60
2023/04/03 09:15:27;;;;;;;4.30;1.63;;;;;;;;;;4993011;28;20078;-54
2023/04/03 09:18:11;;;;;;;3.40;1.38;;;;;;;;;;4986857;28;20473;-54
2023/04/03 09:20:54;;;;;;;1.90;1.10;;;;;;;;;;4987709;28;20065;-60
2023/04/03 09:23:35;;;;;;;5.75;1.27;;;;;;;;;;4986259;28;20101;-60
2023/04/03 09:26:10;;;;;;;1.95;1.02;;;;;;;;;;4986370;28;20138;-62
2023/04/03 09:28:42;;;;;;;1.60;1.05;;;;;;;;;;4984807;28;20498;-62
2023/04/03 09:31:22;;;;;;;4.05;1.00;;;;;;;;;;4986227;28;20054;-62
2023/04/03 09:34:12;;;;;;;1.80;1.17;;;;;;;;;;4983461;28;20146;-62
2023/04/03 09:36:46;;;;;;;4.43;1.38;;;;;;;;;;4986762;28;20145;-62
2023/04/03 09:39:15;;;;;;;2.95;1.13;;;;;;;;;;4988481;28;20078;-62
2023/04/03 09:42:09;;;;;;;4.57;1.30;;;;;;;;;;4987073;28;20065;-62
2023/04/03 09:44:43;;;;;;;2.17;1.08;;;;;;;;;;4969175;28;20054;-54
2023/04/03 09:47:18;;;;;;;3.08;1.42;;;;;;;;;;4987485;28;20054;-51
2023/04/03 09:49:45;;;;;;;5.20;1.45;;;;;;;;;;4987425;28;20127;-50
2023/04/03 09:52:29;;;;;;;2.28;1.45;;;;;;;;;;4985344;28;20071;-49
2023/04/03 09:55:07;;;;;;;4.97;1.60;;;;;;;;;;4989528;28;20057;-53
2023/04/03 09:57:41;;;;;;;5.70;1.23;;;;;;;;;;4984725;28;20497;-54
2023/04/03 10:00:32;;;;;;;5.78;1.55;;;;;;;;;;4990507;28;20100;-51
2023/04/03 10:03:23;;;;;;;3.97;1.50;;;;;;;;;;4983433;28;20053;-48
2023/04/03 10:05:53;;;;;;;4.35;1.45;;;;;;;;;;4986610;28;20129;-57
2023/04/03 10:08:36;;;;;;;3.17;1.42;;;;;;;;;;4986643;28;20058;-57
2023/04/03 10:11:24;;;;;;;2.50;1.17;;;;;;;;;;4980431;28;20112;-59
2023/04/03 10:13:59;;;;;;;3.63;1.55;;;;;;;;;;4987054;28;20058;-59
2023/04/03 10:16:43;;;;;;;5.38;1.23;;;;;;;;;;4987114;28;20047;-61
2023/04/03 10:19:20;;;;;;;3.50;1.23;;;;;;;;;;4982294;28;20058;-60
2023/04/03 10:21:47;;;;;;;5.65;1.42;;;;;;;;;;4991816;28;20506;-52
2023/04/03 10:24:46;;;;;;;4.85;1.45;;;;;;;;;;4991839;28;20085;-52
2023/04/03 10:27:28;;;;;;;3.33;1.45;;;;;;;;;;4991912;28;20084;-51
2023/04/03 10:30:29;;;;;;;4.32;1.08;;;;;;;;;;4996511;28;20056;-54
2023/04/03 10:33:43;;;;;;;2.25;1.17;;;;;;;;;;4993666;28;20554;-53
2023/04/03 10:36:17;;;;;;;5.78;1.30;;;;;;;;;;4990334;28;20050;-53
2023/04/03 10:39:03;;;;;;;3.55;1.20;;;;;;;;;;4985727;28;20050;-53
2023/04/03 10:41:59;;;;;;;2.88;1.15;;;;;;;;;;4990072;28;20054;-54
2023/04/03 10:45:01;;;;;;;3.38;1.17;;;;;;;;;;4959666;28;20137;-55
2023/04/03 10:47:54;;;;;;;4.07;1.33;;;;;;;;;;4991125;28;20081;-51
2023/04/03 10:50:30;;;;;;;2.17;1.02;;;;;;;;;;4989550;28;20058;-54
2023/04/03 10:53:26;;;;;;;3.88;1.30;;;;;;;;;;4990833;28;20070;-56
2023/04/03 10:55:57;;;;;;;2.47;1.05;;;;;;;;;;4987093;28;20049;-53
2023/04/03 10:58:33;;;;;;;6.03;1.60;;;;;;;;;;4990003;28;20134;-53
2023/04/03 11:01:08;;;;;;;5.53;1.40;;;;;;;;;;4992347;28;20058;-60
2023/04/03 11:03:45;;;;;;;4.65;1.08;;;;;;;;;;4992195;28;20066;-55
2023/04/03 11:06:14;;;;;;;3.10;1.10;;;;;;;;;;4988824;28;20058;-57
2023/04/03 11:08:58;;;;;;;2.28;1.50;;;;;;;;;;4987860;28;20058;-57
2023/04/03 11:11:27;;;;;;;4.75;1.45;;;;;;;;;;4990628;28;20058;-57
2023/04/03 11:14:26;;;;;;;4.78;1.33;;;;;;;;;;4991155;28;20060;-58
2023/04/03 11:17:06;;;;;;;2.60;0.90;;;;;;;;;;4990368;28;20525;-58
2023/04/03 11:19:47;;;;;;;2.50;1.10;;;;;;;;;;4990624;28;20504;-57
2023/04/03 11:22:17;;;;;;;5.85;1.50;;;;;;;;;;4985820;28;20054;-58
2023/04/03 11:24:58;;;;;;;5.72;1.30;;;;;;;;;;4986856;28;20062;-55
2023/04/03 11:27:30;;;;;;;3.10;1.13;;;;;;;;;;4988576;28;20069;-58
2023/04/03 11:30:06;;;;;;;5.00;1.40;;;;;;;;;;4987406;28;20089;-56
2023/04/03 11:32:52;;;;;;;3.03;1.30;;;;;;;;;;4985422;28;20058;-56
2023/04/03 11:35:26;;;;;;;4.05;1.38;;;;;;;;;;4991013;28;20129;-56
2023/04/03 11:37:54;;;;;;;4.35;1.20;;;;;;;;;;4990289;28;20046;-57
2023/04/03 11:40:36;;;;;;;1.00;0.73;;;;;;;;;;4990054;28;20054;-56
2023/04/03 11:43:05;;;;;;;2.45;1.17;;;;;;;;;;4991143;28;20518;-61
2023/04/03 11:46:02;;;;;;;3.88;1.30;;;;;;;;;;4990914;28;20066;-58
2023/04/03 11:48:31;;;;;;;3.55;1.20;;;;;;;;;;4986321;28;20096;-55
2023/04/03 11:51:17;;;;;;;2.40;0.98;;;;;;;;;;4983213;28;20418;-56
2023/04/03 11:53:45;;;;;;;3.13;1.25;;;;;;;;;;4988046;28;20054;-57
2023/04/03 11:56:30;;;;;;;3.97;1.20;;;;;;;;;;4988486;28;20142;-57
2023/04/03 11:59:06;;;;;;;2.67;1.17;;;;;;;;;;4988743;28;20042;-55
2023/04/03 12:01:44;;;;;;;6.25;1.30;;;;;;;;;;4986388;28;20145;-61
2023/04/03 12:04:15;;;;;;;2.72;1.15;;;;;;;;;;4988216;28;20057;-61
2023/04/03 12:06:52;;;;;;;6.60;1.48;;;;;;;;;;4990588;28;20047;-61
2023/04/03 12:09:38;;;;;;;5.50;1.55;;;;;;;;;;4985626;28;20093;-61
2023/04/03 12:12:40;;;;;;;3.35;1.02;;;;;;;;;;4987657;28;20497;-50
2023/04/03 12:15:21;;;;;;;1.42;0.80;;;;;;;;;;4981283;28;20136;-61
2023/04/03 12:17:55;;;;;;;4.10;1.00;;;;;;;;;;4983919;28;20149;-61
2023/04/03 12:20:41;;;;;;;3.65;1.10;;;;;;;;;;4988502;28;20305;-61
2023/04/03 12:23:26;;;;;;;4.40;1.65;;;;;;;;;;4995143;28;20050;-61
2023/04/03 12:26:06;;;;;;;2.38;0.82;;;;;;;;;;4983011;28;20049;-61
2023/04/03 12:28:41;;;;;;;2.78;1.20;;;;;;;;;;4982123;28;20065;-62
2023/04/03 12:31:10;;;;;;;2.50;1.05;;;;;;;;;;4987218;28;20481;-60
2023/04/03 12:33:44;;;;;;;4.68;1.65;;;;;;;;;;4985279;28;20062;-58
2023/04/03 12:36:19;;;;;;;2.28;1.13;;;;;;;;;;4989545;28;20050;-59
2023/04/03 12:39:03;;;;;;;5.93;1.40;;;;;;;;;;4986921;28;20051;-55
2023/04/03 12:41:46;;;;;;;4.53;1.73;;;;;;;;;;4984994;28;20047;-57
2023/04/03 12:44:38;;;;;;;1.70;1.00;;;;;;;;;;4985222;28;20058;-53
2023/04/03 12:47:17;;;;;;;3.25;1.33;;;;;;;;;;4988191;28;20137;-51
2023/04/03 12:49:52;;;;;;;6.75;1.45;;;;;;;;;;4992004;28;20065;-56
2023/04/03 12:52:23;;;;;;;4.93;1.50;;;;;;;;;;4988428;28;20206;-57
2023/04/03 12:54:57;;;;;;;2.97;1.10;;;;;;;;;;4988074;28;20054;-56
2023/04/03 12:57:28;;;;;;;1.60;1.00;;;;;;;;;;4986326;28;20054;-58
2023/04/03 12:59:56;;;;;;;4.43;1.13;;;;;;;;;;4989240;28;20061;-53
2023/04/03 13:02:33;;;;;;;6.25;1.30;;;;;;;;;;4985726;28;20079;-57
2023/04/03 13:05:05;;;;;;;3.38;1.40;;;;;;;;;;4985423;28;20092;-56
2023/04/03 13:07:41;;;;;;;2.80;1.20;;;;;;;;;;4989449;28;20060;-56
2023/04/03 13:10:08;;;;;;;3.55;1.10;;;;;;;;;;4988752;28;20141;-61
2023/04/03 13:12:49;;;;;;;2.08;0.98;;;;;;;;;;4985936;28;20523;-56
2023/04/03 13:15:22;;;;;;;3.10;1.30;;;;;;;;;;4991616;28;20141;-50
2023/04/03 13:17:56;;;;;;;4.88;1.25;;;;;;;;;;4986671;28;20050;-56
2023/04/03 13:20:24;;;;;;;;;;;;;;;;;;4986964;28;20627;-55
2023/04/03 13:22:57;;;;;;;2.22;1.35;;;;;;;;;;4985357;28;19929;-55
2023/04/03 13:25:33;;;;;;;3.72;1.25;;;;;;;;;;4991156;28;20442;-52
2023/04/03 13:28:07;;;;;;;5.13;1.40;;;;;;;;;;4989179;28;20050;-61
2023/04/03 13:30:41;;;;;;;2.92;1.23;;;;;;;;;;4988438;28;20073;-61
2023/04/03 13:33:22;;;;;;;2.20;1.20;;;;;;;;;;4980460;28;20056;-61
2023/04/03 13:35:55;;;;;;;7.28;1.50;;;;;;;;;;4986536;28;20094;-61
2023/04/03 13:38:32;;;;;;;3.08;1.30;;;;;;;;;;4984529;28;20673;-62
2023/04/03 13:41:02;;;;;;;4.18;1.30;;;;;;;;;;4986910;28;20058;-61
2023/04/03 13:43:37;;;;;;;5.07;1.10;;;;;;;;;;4988062;28;20641;-61
2023/04/03 13:46:11;;;;;;;3.53;1.10;;;;;;;;;;4987924;28;20125;-61
2023/04/03 13:48:47;;;;;;;3.10;1.75;;;;;;;;;;4985188;28;20538;-61
2023/04/03 13:51:17;;;;;;;2.90;1.23;;;;;;;;;;4985743;28;20133;-61
2023/04/03 13:53:54;;;;;;;1.92;1.08;;;;;;;;;;4990683;28;20149;-61
2023/04/03 13:56:33;;;;;;;7.65;1.70;;;;;;;;;;4990060;28;20129;-50
2023/04/03 13:59:13;;;;;;;2.05;1.17;;;;;;;;;;4991814;28;20050;-53
2023/04/03 14:01:55;;;;;;;6.18;1.60;;;;;;;;;;4991347;28;20541;-52
2023/04/03 14:04:27;;;;;;;3.97;1.30;;;;;;;;;;4994902;28;20054;-53
2023/04/03 14:07:01;;;;;;;2.75;1.35;;;;;;;;;;4994578;28;20054;-54
2023/04/03 14:09:29;;;;;;;5.43;1.17;;;;;;;;;;4992166;28;20101;-52
2023/04/03 14:12:04;;;;;;;2.88;1.13;;;;;;;;;;4994920;28;20062;-50
2023/04/03 14:14:56;;;;;;;5.82;1.40;;;;;;;;;;4993790;28;20042;-54
2023/04/03 14:17:30;;;;;;;2.28;1.10;;;;;;;;;;4989301;28;20466;-51
2023/04/03 14:19:58;;;;;;;3.90;1.40;;;;;;;;;;4987663;28;20088;-53
2023/04/03 14:22:28;;;;;;;4.22;1.42;;;;;;;;;;4992576;28;20078;-55
2023/04/03 14:25:09;;;;;;;3.25;1.00;;;;;;;;;;4988458;28;20543;-62
2023/04/03 14:27:38;;;;;;;3.20;1.10;;;;;;;;;;4989970;28;20145;-61
2023/04/03 14:30:23;;;;;;;3.95;1.52;;;;;;;;;;4987695;28;20133;-62
2023/04/03 14:32:51;;;;;;;3.55;1.60;;;;;;;;;;4987178;28;20050;-61
2023/04/03 14:35:25;;;;;;;5.70;1.73;;;;;;;;;;4992883;28;20050;-61
2023/04/03 14:37:53;;;;;;;4.93;1.45;;;;;;;;;;4989297;28;20064;-61
2023/04/03 14:40:27;;;;;;;4.70;1.20;;;;;;;;;;4989028;28;20049;-62
2023/04/03 14:42:55;;;;;;;;;;;;;;;;;;4989574;28;20100;-61
2023/04/03 14:45:23;;;;;;;4.55;1.48;;;;;;;;;;4991277;28;19926;-62
2023/04/03 14:47:56;;;;;;;5.45;1.48;;;;;;;;;;4990249;28;20068;-62
2023/04/03 14:50:25;;;;;;;3.65;1.08;;;;;;;;;;4990384;28;20045;-61
2023/04/03 14:53:00;;;;;;;2.53;1.42;;;;;;;;;;4989937;28;20062;-53
2023/04/03 14:55:27;;;;;;;3.28;1.27;;;;;;;;;;4994533;28;20177;-55
2023/04/03 14:57:54;;;;;;;;;;;;;;;;;;4993174;28;20072;-51
2023/04/03 15:00:28;;;;;;;3.67;1.23;;;;;;;;;;4989328;28;19921;-57
2023/04/03 15:02:55;;;;;;;6.07;1.60;;;;;;;;;;4991734;28;20474;-57
2023/04/03 15:05:30;;;;;;;4.38;1.30;;;;;;;;;;4989119;28;20098;-54
2023/04/03 15:08:00;;;;;;;2.53;0.95;;;;;;;;;;4983587;28;20482;-53
2023/04/03 15:10:28;;;;;;;4.47;1.17;;;;;;;;;;4991654;28;20524;-52
2023/04/03 15:13:03;;;;;;;2.33;1.40;;;;;;;;;;4988016;28;20055;-56
2023/04/03 15:15:30;;;;;;;;;;;;;;;;;;4988512;28;20051;-57
2023/04/03 15:18:05;;;;;;;2.05;1.10;;;;;;;;;;4990440;28;19930;-53
2023/04/03 15:20:33;;;;;;;6.20;1.45;;;;;;;;;;4988762;28;20470;-52
2023/04/03 15:23:10;;;;;;;4.60;1.08;;;;;;;;;;4986911;28;20141;-56
2023/04/03 15:25:51;;;;;;;8.85;1.67;;;;;;;;;;4988811;28;20548;-54